createdAt,value
2022-11-28T00:01:33.352Z,5.71
2022-11-28T00:04:01.710Z,5.69
2022-11-28T00:06:31.778Z,5.72
2022-11-28T00:09:00.567Z,5.67
2022-11-28T00:11:28.854Z,5.76
2022-11-28T00:13:57.372Z,5.66
2022-11-28T00:16:26.303Z,5.62
2022-11-28T00:18:56.151Z,5.58
2022-11-28T00:21:24.905Z,5.56
2022-11-28T00:23:54.837Z,5.56
2022-11-28T00:26:24.740Z,5.55
2022-11-28T00:28:52.969Z,5.66
2022-11-28T00:31:23.591Z,5.65
2022-11-28T00:33:51.932Z,5.57
2022-11-28T00:36:20.957Z,5.53
2022-11-28T00:38:49.337Z,5.49
2022-11-28T00:41:20.770Z,5.42
2022-11-28T00:43:50.836Z,5.50
2022-11-28T00:46:20.760Z,5.40
2022-11-28T00:48:49.390Z,5.34
2022-11-28T00:51:19.871Z,5.30
2022-11-28T00:53:52.093Z,5.19
2022-11-28T00:56:24.233Z,5.11
2022-11-28T00:58:52.951Z,5.05
2022-11-28T01:01:23.421Z,5.05
2022-11-28T01:03:53.232Z,5.17
2022-11-28T01:06:25.665Z,5.12
2022-11-28T01:08:54.219Z,5.04
2022-11-28T01:11:24.348Z,5.00
2022-11-28T01:13:54.666Z,4.96
2022-11-28T01:16:22.799Z,4.84
2022-11-28T01:18:51.109Z,4.94
2022-11-28T01:21:20.263Z,4.82
2022-11-28T01:23:48.494Z,4.79
2022-11-28T01:26:19.893Z,4.65
2022-11-28T01:28:50.054Z,4.61
2022-11-28T01:31:19.895Z,4.82
2022-11-28T01:33:48.201Z,4.75
2022-11-28T01:36:16.470Z,4.75
2022-11-28T01:38:44.648Z,4.65
2022-11-28T01:41:13.488Z,4.72
2022-11-28T01:44:05.638Z,4.62
2022-11-28T01:46:37.742Z,4.54
2022-11-28T01:49:15.137Z,4.69
2022-11-28T01:51:47.737Z,4.65
2022-11-28T01:54:17.750Z,4.64
2022-11-28T01:56:51.258Z,4.50
2022-11-28T01:59:22.655Z,4.51
2022-11-28T02:01:50.891Z,4.44
2022-11-28T02:04:19.302Z,4.50
2022-11-28T02:06:47.537Z,4.46
2022-11-28T02:09:17.309Z,4.47
2022-11-28T02:12:06.268Z,4.42
2022-11-28T02:14:54.045Z,4.41
2022-11-28T02:17:36.842Z,4.33
2022-11-28T02:20:33.895Z,4.34
2022-11-28T02:23:07.366Z,4.43
2022-11-28T02:26:04.999Z,4.40
2022-11-28T02:29:05.125Z,4.45
2022-11-28T02:32:11.979Z,4.45
2022-11-28T02:34:49.693Z,4.46
2022-11-28T02:37:27.530Z,4.50
2022-11-28T02:40:04.837Z,4.36
2022-11-28T02:42:42.478Z,4.29
2022-11-28T02:45:14.854Z,4.16
2022-11-28T02:47:46.991Z,4.09
2022-11-28T02:50:23.533Z,4.01
2022-11-28T02:52:54.930Z,4.08
2022-11-28T02:55:24.286Z,4.03
2022-11-28T02:57:54.898Z,4.15
2022-11-28T03:00:30.004Z,4.08
2022-11-28T03:03:38.285Z,4.04
2022-11-28T03:06:17.913Z,4.00
2022-11-28T03:08:58.730Z,4.02
2022-11-28T03:11:47.375Z,3.98
2022-11-28T03:14:25.588Z,3.98
2022-11-28T03:17:04.455Z,3.98
2022-11-28T03:19:36.852Z,3.93
2022-11-28T03:22:15.130Z,3.93
2022-11-28T03:24:47.946Z,3.89
2022-11-28T03:27:19.937Z,3.95
2022-11-28T03:29:50.904Z,3.85
2022-11-28T03:32:24.663Z,3.86
2022-11-28T03:35:00.914Z,3.85
2022-11-28T03:37:34.002Z,3.80
2022-11-28T03:40:07.250Z,3.79
2022-11-28T03:42:39.862Z,3.84
2022-11-28T03:45:12.008Z,3.80
2022-11-28T03:47:46.862Z,3.86
2022-11-28T03:50:20.453Z,3.81
2022-11-28T03:52:55.757Z,3.74
2022-11-28T03:55:31.767Z,3.68
2022-11-28T03:58:06.041Z,3.72
2022-11-28T04:00:37.396Z,3.74
2022-11-28T04:03:13.396Z,3.75
2022-11-28T04:05:49.542Z,3.71
2022-11-28T04:08:23.507Z,3.68
2022-11-28T04:10:57.823Z,3.68
2022-11-28T04:13:30.608Z,3.64
2022-11-28T04:16:04.643Z,3.65
2022-11-28T04:18:40.933Z,3.66
2022-11-28T04:21:13.975Z,3.66
2022-11-28T04:23:47.680Z,3.66
2022-11-28T04:26:20.986Z,3.63
2022-11-28T04:28:51.114Z,3.67
2022-11-28T04:31:22.531Z,3.69
2022-11-28T04:33:55.839Z,3.78
2022-11-28T04:36:25.893Z,3.78
2022-11-28T04:38:57.630Z,3.71
2022-11-28T04:41:33.449Z,3.65
2022-11-28T04:44:08.764Z,3.60
2022-11-28T04:46:41.602Z,3.59
2022-11-28T04:49:09.778Z,3.59
2022-11-28T04:51:45.712Z,3.58
2022-11-28T04:54:23.290Z,3.58
2022-11-28T04:56:57.404Z,3.61
2022-11-28T04:59:28.455Z,3.47
2022-11-28T05:01:58.498Z,3.53
2022-11-28T05:04:26.660Z,3.46
2022-11-28T05:07:02.439Z,3.42
2022-11-28T05:09:32.149Z,3.60
2022-11-28T05:12:00.206Z,3.56
2022-11-28T05:14:28.773Z,3.62
2022-11-28T05:16:56.799Z,3.65
2022-11-28T05:19:24.896Z,3.67
2022-11-28T05:21:53.645Z,3.71
2022-11-28T05:24:22.577Z,3.69
2022-11-28T05:26:52.414Z,3.63
2022-11-28T05:29:20.460Z,3.63
2022-11-28T05:31:48.461Z,3.73
2022-11-28T05:34:16.575Z,3.77
2022-11-28T05:36:44.525Z,3.80
2022-11-28T05:39:12.470Z,3.84
2022-11-28T05:41:40.517Z,3.80
2022-11-28T05:44:11.542Z,3.85
2022-11-28T05:46:39.478Z,3.93
2022-11-28T05:49:07.449Z,3.96
2022-11-28T05:51:35.470Z,3.95
2022-11-28T05:54:03.584Z,3.98
2022-11-28T05:56:31.831Z,4.05
2022-11-28T05:59:00.142Z,4.14
2022-11-28T06:01:30.930Z,4.16
2022-11-28T06:04:01.017Z,4.09
2022-11-28T06:06:31.427Z,3.99
2022-11-28T06:09:00.079Z,4.12
2022-11-28T06:11:30.170Z,4.10
2022-11-28T06:13:58.416Z,4.17
2022-11-28T06:16:28.509Z,4.19
2022-11-28T06:18:59.633Z,4.07
2022-11-28T06:21:28.951Z,4.07
2022-11-28T06:23:58.720Z,4.10
2022-11-28T06:26:28.310Z,4.18
2022-11-28T06:28:56.640Z,4.16
2022-11-28T06:31:27.356Z,4.24
2022-11-28T06:33:57.847Z,4.27
2022-11-28T06:36:26.480Z,4.18
2022-11-28T06:38:54.909Z,4.25
2022-11-28T06:41:23.894Z,4.23
2022-11-28T06:43:52.783Z,4.23
2022-11-28T06:46:22.623Z,4.15
2022-11-28T06:48:52.503Z,4.11
2022-11-28T06:51:22.439Z,4.20
2022-11-28T06:53:50.904Z,4.19
2022-11-28T06:56:21.180Z,4.13
2022-11-28T06:58:55.097Z,4.23
2022-11-28T07:01:27.078Z,4.17
2022-11-28T07:03:55.921Z,4.19
2022-11-28T07:06:26.915Z,4.11
2022-11-28T07:08:55.063Z,4.23
2022-11-28T07:11:25.034Z,4.23
2022-11-28T07:13:54.279Z,4.19
2022-11-28T07:16:24.569Z,4.27
2022-11-28T07:18:53.576Z,4.08
2022-11-28T07:21:22.151Z,4.22
2022-11-28T07:23:51.618Z,4.16
2022-11-28T07:26:21.542Z,4.05
2022-11-28T07:28:50.306Z,4.07
2022-11-28T07:31:21.518Z,4.03
2022-11-28T07:33:52.183Z,4.04
2022-11-28T07:36:21.582Z,4.08
2022-11-28T07:38:52.950Z,3.97
2022-11-28T07:41:26.251Z,3.96
2022-11-28T07:43:56.855Z,3.84
2022-11-28T07:46:25.748Z,4.00
2022-11-28T07:48:54.127Z,3.99
2022-11-28T07:51:24.201Z,3.98
2022-11-28T07:53:54.241Z,3.88
2022-11-28T07:56:25.172Z,4.05
2022-11-28T07:58:53.741Z,4.00
2022-11-28T08:01:23.607Z,4.11
2022-11-28T08:03:52.895Z,4.01
2022-11-28T08:06:23.744Z,4.16
2022-11-28T08:08:53.935Z,4.35
2022-11-28T08:11:23.993Z,4.37
2022-11-28T08:13:55.099Z,4.25
2022-11-28T08:16:28.315Z,4.36
2022-11-28T08:18:57.110Z,4.49
2022-11-28T08:21:26.739Z,4.40
2022-11-28T08:23:59.428Z,4.38
2022-11-28T08:26:30.984Z,4.36
2022-11-28T08:29:00.056Z,4.41
2022-11-28T08:31:30.471Z,4.46
2022-11-28T08:34:00.812Z,4.43
2022-11-28T08:36:29.604Z,4.49
2022-11-28T08:39:23.022Z,4.47
2022-11-28T08:41:49.893Z,4.58
2022-11-28T08:44:18.031Z,4.49
2022-11-28T08:46:46.081Z,4.50
2022-11-28T08:49:14.068Z,4.43
2022-11-28T08:51:42.185Z,4.46
2022-11-28T08:54:11.773Z,4.54
2022-11-28T08:56:39.875Z,4.59
2022-11-28T08:59:08.199Z,4.69
2022-11-28T09:01:36.237Z,4.69
2022-11-28T09:04:05.587Z,4.68
2022-11-28T09:06:33.922Z,4.61
2022-11-28T09:09:03.058Z,4.52
2022-11-28T09:11:33.099Z,4.52
2022-11-28T09:14:01.365Z,4.56
2022-11-28T09:16:29.664Z,4.58
2022-11-28T09:18:59.505Z,4.60
2022-11-28T09:21:28.107Z,4.61
2022-11-28T09:23:57.409Z,4.63
2022-11-28T09:26:26.538Z,4.68
2022-11-28T09:28:56.134Z,4.67
2022-11-28T09:31:24.591Z,4.62
2022-11-28T09:33:52.743Z,4.69
2022-11-28T09:36:22.845Z,4.69
2022-11-28T09:38:51.262Z,4.73
2022-11-28T09:41:37.825Z,4.74
2022-11-28T09:44:16.680Z,4.68
2022-11-28T09:46:47.646Z,4.59
2022-11-28T09:49:25.106Z,4.59
2022-11-28T09:51:58.613Z,4.66
2022-11-28T09:54:36.037Z,4.69
2022-11-28T09:57:10.105Z,4.82
2022-11-28T09:59:39.734Z,4.82
2022-11-28T10:02:22.537Z,4.88
2022-11-28T10:04:59.801Z,4.91
2022-11-28T10:07:35.472Z,5.00
2022-11-28T10:10:15.746Z,5.09
2022-11-28T10:12:52.610Z,5.06
2022-11-28T10:15:38.473Z,5.20
2022-11-28T10:18:19.378Z,5.30
2022-11-28T10:20:49.888Z,5.43
2022-11-28T10:23:24.241Z,5.43
2022-11-28T10:25:56.998Z,5.35
2022-11-28T10:28:30.713Z,5.27
2022-11-28T10:31:05.508Z,5.30
2022-11-28T10:33:38.306Z,5.30
2022-11-28T10:36:08.974Z,5.35
2022-11-28T10:38:37.756Z,5.32
2022-11-28T10:41:14.559Z,5.25
2022-11-28T10:43:47.382Z,5.33
2022-11-28T10:46:42.444Z,5.42
2022-11-28T10:49:28.360Z,5.48
2022-11-28T10:52:09.429Z,5.43
2022-11-28T10:55:01.638Z,5.42
2022-11-28T10:57:36.594Z,5.39
2022-11-28T11:00:12.364Z,5.44
2022-11-28T11:02:46.986Z,5.72
2022-11-28T11:05:18.588Z,5.74
2022-11-28T11:07:51.636Z,5.78
2022-11-28T11:10:22.872Z,5.82
2022-11-28T11:12:53.692Z,5.87
2022-11-28T11:15:25.712Z,5.84
2022-11-28T11:17:55.141Z,5.79
2022-11-28T11:20:36.694Z,5.69
2022-11-28T11:23:13.874Z,5.75
2022-11-28T11:25:52.775Z,5.84
2022-11-28T11:28:41.670Z,5.98
2022-11-28T11:31:21.873Z,5.86
2022-11-28T11:33:54.477Z,5.92
2022-11-28T11:36:28.306Z,5.89
2022-11-28T11:39:18.187Z,5.72
2022-11-28T11:41:48.920Z,5.82
2022-11-28T11:44:35.388Z,5.68
2022-11-28T11:47:05.676Z,5.56
2022-11-28T11:49:36.899Z,5.64
2022-11-28T11:52:08.134Z,5.73
2022-11-28T11:54:36.160Z,5.86
2022-11-28T11:57:31.501Z,5.90
2022-11-28T11:59:57.296Z,5.97
2022-11-28T12:02:32.513Z,6.03
2022-11-28T12:05:05.672Z,5.98
2022-11-28T12:07:40.406Z,5.95
2022-11-28T12:10:14.184Z,5.96
2022-11-28T12:12:42.470Z,5.99
2022-11-28T12:15:18.558Z,5.93
2022-11-28T12:17:59.766Z,5.91
2022-11-28T12:20:39.179Z,5.76
2022-11-28T12:23:24.177Z,5.67
2022-11-28T12:25:59.826Z,5.71
2022-11-28T12:28:43.629Z,5.67
2022-11-28T12:31:20.596Z,5.72
2022-11-28T12:34:01.891Z,5.70
2022-11-28T12:36:37.869Z,5.85
2022-11-28T12:39:18.501Z,5.80
2022-11-28T12:42:09.669Z,5.78
2022-11-28T12:44:56.307Z,5.74
2022-11-28T12:47:35.974Z,5.67
2022-11-28T12:50:17.229Z,5.59
2022-11-28T12:52:57.350Z,5.51
2022-11-28T12:55:33.651Z,5.50
2022-11-28T12:58:10.147Z,5.57
2022-11-28T13:00:49.387Z,5.52
2022-11-28T13:03:34.013Z,5.50
2022-11-28T13:06:16.538Z,5.47
2022-11-28T13:09:10.587Z,5.42
2022-11-28T13:11:51.057Z,5.39
2022-11-28T13:14:30.490Z,5.35
2022-11-28T13:17:06.993Z,5.28
2022-11-28T13:19:42.260Z,5.36
2022-11-28T13:22:15.993Z,5.29
2022-11-28T13:24:52.695Z,5.40
2022-11-28T13:27:32.684Z,5.44
2022-11-28T13:30:13.732Z,5.49
2022-11-28T13:32:48.047Z,5.45
2022-11-28T13:35:18.855Z,5.34
2022-11-28T13:40:49.790Z,5.37
2022-11-28T13:43:25.652Z,5.41
2022-11-28T13:45:54.312Z,5.45
2022-11-28T13:49:19.629Z,5.43
2022-11-28T13:51:49.218Z,5.48
2022-11-28T13:54:45.706Z,5.49
2022-11-28T13:57:23.146Z,5.42
2022-11-28T13:59:58.324Z,5.44
2022-11-28T14:02:37.441Z,5.55
2022-11-28T14:05:19.958Z,5.45
2022-11-28T14:07:51.596Z,5.48
2022-11-28T14:10:41.894Z,5.56
2022-11-28T14:13:30.931Z,5.59
2022-11-28T14:16:14.922Z,5.49
2022-11-28T14:19:01.680Z,5.49
2022-11-28T14:21:42.179Z,5.46
2022-11-28T14:24:17.574Z,5.47
2022-11-28T14:26:46.110Z,5.41
2022-11-28T14:29:26.343Z,5.44
2022-11-28T14:32:27.879Z,5.44
2022-11-28T14:34:47.296Z,5.44
2022-11-28T14:37:48.936Z,5.41
2022-11-28T14:40:53.419Z,5.41
2022-11-28T14:43:29.429Z,5.33
2022-11-28T14:46:29.695Z,5.30
2022-11-28T14:49:21.134Z,5.26
2022-11-28T14:52:37.609Z,5.18
2022-11-28T14:55:22.903Z,5.16
2022-11-28T14:57:59.252Z,5.19
2022-11-28T15:00:29.671Z,5.13
2022-11-28T15:03:28.754Z,5.12
2022-11-28T15:06:02.354Z,5.11
2022-11-28T15:08:45.581Z,5.06
2022-11-28T15:11:23.410Z,5.09
2022-11-28T15:14:09.196Z,5.14
2022-11-28T15:16:45.134Z,5.08
2022-11-28T15:19:24.904Z,5.07
2022-11-28T15:21:54.655Z,5.04
2022-11-28T15:24:29.846Z,4.96
2022-11-28T15:26:59.988Z,4.92
2022-11-28T15:29:30.226Z,4.94
2022-11-28T15:31:59.641Z,4.97
2022-11-28T15:34:32.205Z,4.96
2022-11-28T15:37:02.437Z,4.98
2022-11-28T15:39:36.098Z,4.97
2022-11-28T15:42:06.859Z,4.89
2022-11-28T15:44:36.788Z,4.89
2022-11-28T15:47:05.299Z,4.89
2022-11-28T15:49:41.227Z,4.88
2022-11-28T15:52:17.469Z,4.85
2022-11-28T15:54:46.682Z,4.91
2022-11-28T15:57:25.178Z,4.89
2022-11-28T15:59:53.658Z,4.86
2022-11-28T16:02:26.843Z,4.82
2022-11-28T16:05:03.784Z,4.80
2022-11-28T16:07:32.289Z,4.77
2022-11-28T16:10:03.906Z,4.77
2022-11-28T16:12:32.260Z,4.75
2022-11-28T16:15:03.701Z,4.71
2022-11-28T16:17:34.677Z,4.75
2022-11-28T16:20:05.179Z,4.69
2022-11-28T16:22:37.919Z,4.67
2022-11-28T16:25:15.415Z,4.70
2022-11-28T16:27:47.502Z,4.82
2022-11-28T16:30:36.710Z,4.81
2022-11-28T16:33:25.742Z,4.81
2022-11-28T16:36:08.968Z,4.76
2022-11-28T16:38:37.443Z,4.81
2022-11-28T16:41:05.867Z,4.76
2022-11-28T16:43:36.974Z,4.74
2022-11-28T16:46:07.997Z,4.81
2022-11-28T16:48:38.367Z,4.69
2022-11-28T16:51:36.139Z,4.78
2022-11-28T16:54:29.025Z,4.60
2022-11-28T16:57:11.682Z,4.52
2022-11-28T16:59:39.901Z,4.50
2022-11-28T17:02:16.629Z,4.45
2022-11-28T17:04:45.380Z,4.37
2022-11-28T17:07:17.536Z,4.33
2022-11-28T17:09:47.436Z,4.34
2022-11-28T17:12:22.703Z,4.55
2022-11-28T17:14:50.787Z,4.69
2022-11-28T17:17:20.700Z,4.63
2022-11-28T17:19:48.810Z,4.61
2022-11-28T17:22:21.099Z,4.51
2022-11-28T17:24:50.252Z,4.47
2022-11-28T17:27:18.518Z,4.44
2022-11-28T17:29:46.731Z,4.48
2022-11-28T17:32:15.632Z,4.52
2022-11-28T17:34:46.880Z,4.68
2022-11-28T17:37:17.718Z,4.67
2022-11-28T17:40:06.263Z,4.58
2022-11-28T17:42:34.310Z,4.68
2022-11-28T17:45:02.376Z,4.67
2022-11-28T17:47:30.527Z,4.65
2022-11-28T17:49:58.890Z,4.58
2022-11-28T17:52:30.356Z,4.43
2022-11-28T17:55:06.865Z,4.38
2022-11-28T17:57:35.654Z,4.32
2022-11-28T18:00:06.677Z,4.32
2022-11-28T18:02:35.124Z,4.32
2022-11-28T18:05:03.375Z,4.30
2022-11-28T18:07:33.199Z,4.26
2022-11-28T18:10:01.304Z,4.26
2022-11-28T18:12:29.335Z,4.22
2022-11-28T18:14:59.112Z,4.19
2022-11-28T18:17:27.085Z,4.28
2022-11-28T18:19:57.717Z,4.27
2022-11-28T18:22:26.140Z,4.32
2022-11-28T18:24:55.573Z,4.27
2022-11-28T18:27:23.821Z,4.23
2022-11-28T18:29:52.606Z,4.17
2022-11-28T18:32:20.683Z,4.15
2022-11-28T18:34:48.758Z,4.13
2022-11-28T18:37:16.867Z,4.10
2022-11-28T18:39:45.082Z,4.11
2022-11-28T18:42:14.667Z,4.13
2022-11-28T18:44:42.756Z,4.14
2022-11-28T18:47:13.168Z,4.12
2022-11-28T18:49:41.884Z,4.10
2022-11-28T18:52:10.234Z,4.11
2022-11-28T18:54:38.857Z,4.08
2022-11-28T18:57:08.725Z,4.03
2022-11-28T18:59:38.196Z,4.03
2022-11-28T19:02:06.364Z,4.16
2022-11-28T19:04:34.414Z,4.11
2022-11-28T19:07:04.214Z,4.09
2022-11-28T19:09:32.661Z,4.07
2022-11-28T19:12:00.736Z,4.05
2022-11-28T19:14:28.889Z,4.01
2022-11-28T19:16:58.419Z,4.05
2022-11-28T19:19:26.572Z,4.08
2022-11-28T19:21:54.893Z,4.06
2022-11-28T19:24:23.254Z,4.01
2022-11-28T19:26:51.685Z,3.94
2022-11-28T19:29:20.056Z,3.92
2022-11-28T19:31:48.188Z,4.00
2022-11-28T19:34:20.527Z,4.17
2022-11-28T19:36:50.987Z,4.11
2022-11-28T19:39:22.400Z,4.13
2022-11-28T19:41:51.430Z,4.15
2022-11-28T19:44:21.024Z,4.09
2022-11-28T19:46:50.417Z,4.17
2022-11-28T19:49:22.378Z,4.12
2022-11-28T19:51:52.248Z,4.06
2022-11-28T19:54:21.909Z,4.05
2022-11-28T19:56:50.698Z,4.08
2022-11-28T19:59:19.425Z,4.06
2022-11-28T20:01:49.916Z,4.02
2022-11-28T20:04:38.145Z,3.98
2022-11-28T20:07:06.164Z,3.97
2022-11-28T20:09:34.187Z,3.96
2022-11-28T20:12:02.256Z,3.98
2022-11-28T20:14:32.333Z,4.00
2022-11-28T20:17:01.135Z,4.01
2022-11-28T20:19:29.394Z,4.06
2022-11-28T20:22:00.671Z,4.03
2022-11-28T20:24:30.456Z,4.03
2022-11-28T20:26:58.654Z,4.00
2022-11-28T20:29:28.054Z,4.00
2022-11-28T20:31:57.432Z,4.02
2022-11-28T20:34:26.979Z,4.00
2022-11-28T20:36:55.319Z,4.01
2022-11-28T20:39:25.025Z,4.08
2022-11-28T20:41:53.083Z,4.02
2022-11-28T20:44:21.480Z,4.00
2022-11-28T20:46:50.106Z,3.99
2022-11-28T20:49:18.711Z,4.01
2022-11-28T20:51:48.349Z,4.06
2022-11-28T20:54:16.485Z,4.03
2022-11-28T20:57:13.278Z,4.03
2022-11-28T20:59:35.844Z,4.01
2022-11-28T21:02:04.102Z,3.96
2022-11-28T21:04:33.042Z,4.01
2022-11-28T21:07:01.118Z,4.03
2022-11-28T21:09:29.340Z,4.05
2022-11-28T21:11:59.601Z,4.08
2022-11-28T21:14:29.419Z,4.06
2022-11-28T21:16:58.826Z,4.07
2022-11-28T21:19:27.202Z,4.07
2022-11-28T21:21:55.409Z,4.07
2022-11-28T21:24:23.614Z,4.08
2022-11-28T21:26:54.446Z,4.08
2022-11-28T21:29:25.202Z,4.08
2022-11-28T21:31:53.416Z,4.02
2022-11-28T21:34:22.511Z,3.98
2022-11-28T21:36:50.592Z,4.00
2022-11-28T21:39:20.685Z,4.01
2022-11-28T21:41:49.179Z,4.03
2022-11-28T21:44:17.410Z,4.03
2022-11-28T21:46:46.729Z,4.04
2022-11-28T21:49:14.752Z,4.05
2022-11-28T21:51:42.855Z,4.07
2022-11-28T21:54:11.700Z,4.03
2022-11-28T21:56:40.098Z,4.01
2022-11-28T21:59:08.262Z,3.97
2022-11-28T22:01:36.365Z,3.95
2022-11-28T22:04:06.298Z,3.94
2022-11-28T22:06:34.593Z,4.00
2022-11-28T22:09:09.213Z,3.99
2022-11-28T22:11:38.363Z,4.00
2022-11-28T22:14:06.745Z,3.98
2022-11-28T22:16:34.833Z,3.95
2022-11-28T22:19:03.188Z,3.94
2022-11-28T22:24:21.213Z,3.93
2022-11-28T22:26:49.314Z,3.92
2022-11-28T22:29:17.466Z,3.94
2022-11-28T22:31:45.810Z,3.98
2022-11-28T22:34:14.040Z,3.98
2022-11-28T22:36:43.432Z,3.94
2022-11-28T22:39:12.610Z,3.90
2022-11-28T22:41:40.847Z,3.89
2022-11-28T22:44:08.909Z,3.92
2022-11-28T22:46:37.174Z,3.97
2022-11-28T22:49:05.350Z,4.03
2022-11-28T22:51:33.651Z,4.06
2022-11-28T22:54:04.223Z,4.08
2022-11-28T22:56:34.472Z,4.02
2022-11-28T22:59:05.106Z,3.91
2022-11-28T23:01:34.403Z,3.87
2022-11-28T23:04:02.412Z,3.89
2022-11-28T23:06:32.399Z,3.91
2022-11-28T23:09:03.505Z,3.90
2022-11-28T23:11:34.305Z,3.96
2022-11-28T23:14:04.457Z,3.97
2022-11-28T23:16:34.499Z,4.05
2022-11-28T23:19:05.132Z,4.03
2022-11-28T23:21:34.715Z,4.03
2022-11-28T23:24:04.444Z,3.97
2022-11-28T23:26:33.435Z,3.95
2022-11-28T23:29:02.906Z,4.08
2022-11-28T23:31:32.689Z,4.14
2022-11-28T23:34:02.118Z,4.15
2022-11-28T23:36:36.967Z,4.24
2022-11-28T23:39:12.605Z,4.12
2022-11-28T23:41:41.081Z,4.12
2022-11-28T23:44:11.608Z,4.04
2022-11-28T23:46:40.506Z,3.97
2022-11-28T23:49:09.186Z,3.93
2022-11-28T23:51:38.175Z,3.91
2022-11-28T23:54:06.278Z,3.88
2022-11-28T23:56:38.222Z,3.96
2022-11-28T23:59:08.008Z,3.88
